Time;durP1;ratioP1;P1;durP2;ratioP2;P2;SDS_P1;SDS_P2;PMS_P1;PMS_P2;Temp;Humidity;BMP_temperature;BMP_pressure;BME280_temperature;BME280_humidity;BME280_pressure;Samples;Min_cycle;Max_cycle;Signal;HPM_P1;HPM_P2
2022/06/25 04:01:27;;;;;;;23.33;21.10;;;18.90;99.90;;;;;;5483054;23;21090;-71
2022/06/25 04:03:54;;;;;;;23.50;21.00;;;18.90;99.90;;;;;;4935358;29;20465;-71
2022/06/25 04:06:21;;;;;;;22.23;20.17;;;19.00;99.90;;;;;;4930468;29;20473;-71
2022/06/25 04:08:48;;;;;;;23.70;21.37;;;19.00;99.90;;;;;;4935413;29;20466;-72
2022/06/25 04:11:14;;;;;;;22.37;19.60;;;19.00;99.90;;;;;;4935533;29;20492;-71
2022/06/25 04:13:41;;;;;;;22.00;20.00;;;19.00;99.90;;;;;;4935103;29;20761;-71
2022/06/25 04:16:08;;;;;;;21.10;19.30;;;19.10;99.90;;;;;;4936328;29;20502;-71
2022/06/25 04:18:36;;;;;;;22.17;20.27;;;19.10;99.90;;;;;;4935005;29;20492;-71
2022/06/25 04:21:03;;;;;;;19.40;17.40;;;19.10;99.90;;;;;;4934917;29;20572;-71
2022/06/25 04:23:30;;;;;;;21.27;19.07;;;19.10;99.90;;;;;;4935160;29;20476;-71
2022/06/25 04:25:56;;;;;;;20.50;18.60;;;19.20;99.90;;;;;;4935420;29;20477;-71
2022/06/25 04:31:07;;;;;;;19.90;17.90;;;19.30;99.90;;;;;;4935220;29;20473;-70
2022/06/25 04:33:35;;;;;;;18.50;16.83;;;19.40;99.90;;;;;;4934817;29;20472;-71
2022/06/25 04:36:02;;;;;;;19.07;17.27;;;19.50;99.90;;;;;;4935280;29;20544;-70
2022/06/25 04:38:29;;;;;;;18.97;17.37;;;19.50;99.90;;;;;;4935633;29;20470;-71
2022/06/25 04:40:56;;;;;;;18.83;17.20;;;19.50;99.90;;;;;;4935810;29;20493;-71
2022/06/25 04:43:23;;;;;;;18.10;16.27;;;19.50;99.90;;;;;;4935575;29;20469;-70
2022/06/25 04:45:50;;;;;;;19.17;17.47;;;19.50;99.90;;;;;;4936009;29;20548;-70
2022/06/25 04:48:17;;;;;;;20.10;17.80;;;19.60;99.90;;;;;;4935161;29;20488;-70
2022/06/25 04:50:46;;;;;;;18.67;16.87;;;19.60;99.90;;;;;;4934398;29;20482;-70
2022/06/25 04:53:13;;;;;;;17.80;16.40;;;19.80;99.90;;;;;;4935185;29;20469;-70
2022/06/25 04:55:40;;;;;;;17.90;16.13;;;19.90;99.90;;;;;;4932170;29;20477;-70
2022/06/25 04:58:06;;;;;;;16.90;15.40;;;20.10;99.90;;;;;;4935115;29;20462;-71
2022/06/25 05:00:33;;;;;;;16.33;15.13;;;20.30;99.90;;;;;;4933906;29;21002;-71
2022/06/25 05:03:00;;;;;;;17.33;15.50;;;20.50;99.90;;;;;;4934772;29;20925;-71
2022/06/25 05:05:27;;;;;;;16.10;14.90;;;20.70;99.90;;;;;;4934070;29;20469;-71
2022/06/25 05:07:55;;;;;;;16.47;15.17;;;20.90;99.90;;;;;;4934584;29;20476;-71
2022/06/25 05:10:22;;;;;;;15.13;13.60;;;21.10;99.90;;;;;;4934531;29;20465;-70
2022/06/25 05:15:33;;;;;;;14.33;13.37;;;21.60;99.90;;;;;;4934275;29;20444;-71
2022/06/25 05:18:00;;;;;;;15.50;14.23;;;21.80;99.90;;;;;;4934559;29;20466;-70
2022/06/25 05:20:27;;;;;;;14.17;13.17;;;22.00;99.90;;;;;;4933341;29;20500;-70
2022/06/25 05:22:55;;;;;;;15.33;14.07;;;22.00;99.90;;;;;;4934613;29;20469;-71
2022/06/25 05:25:21;;;;;;;13.63;12.70;;;22.20;99.90;;;;;;4934077;29;20470;-71
2022/06/25 05:27:48;;;;;;;13.90;12.90;;;22.40;99.90;;;;;;4934376;29;20473;-70
2022/06/25 05:30:15;;;;;;;12.80;12.00;;;22.50;99.90;;;;;;4933700;29;20801;-70
2022/06/25 05:32:42;;;;;;;14.80;13.40;;;22.70;99.90;;;;;;4933207;29;20844;-71
2022/06/25 05:35:09;;;;;;;13.17;12.27;;;22.90;99.90;;;;;;4933735;29;20480;-71
2022/06/25 05:37:35;;;;;;;12.70;11.83;;;23.10;99.90;;;;;;4934226;29;20470;-71
2022/06/25 05:40:04;;;;;;;12.40;11.67;;;23.30;99.90;;;;;;4942761;29;20485;-71
2022/06/25 05:42:31;;;;;;;13.00;12.10;;;23.40;99.90;;;;;;4944812;29;20497;-70
2022/06/25 05:44:58;;;;;;;13.03;12.27;;;23.50;99.90;;;;;;4933511;29;21083;-71
2022/06/25 05:47:24;;;;;;;13.87;12.90;;;23.60;99.90;;;;;;4933934;29;20477;-71
2022/06/25 05:49:51;;;;;;;14.17;13.17;;;23.70;99.90;;;;;;4933234;29;20461;-71
2022/06/25 05:52:18;;;;;;;14.30;13.27;;;23.70;99.90;;;;;;4933905;29;20485;-70
2022/06/25 05:54:45;;;;;;;13.27;12.47;;;23.80;99.90;;;;;;4933606;29;20476;-70
2022/06/25 05:57:13;;;;;;;12.93;12.23;;;23.90;99.90;;;;;;4934297;29;20469;-71
2022/06/25 05:59:40;;;;;;;13.40;12.40;;;24.10;99.90;;;;;;4932992;29;20509;-71
2022/06/25 06:02:07;;;;;;;13.40;12.60;;;24.50;99.90;;;;;;4933842;29;20507;-71
2022/06/25 06:04:34;;;;;;;12.10;11.40;;;24.90;99.90;;;;;;4933404;29;20472;-70
2022/06/25 06:07:02;;;;;;;13.33;12.43;;;25.20;99.90;;;;;;4933842;29;20472;-70
2022/06/25 06:09:31;;;;;;;14.20;13.40;;;25.50;99.90;;;;;;4933610;29;20476;-71
2022/06/25 06:11:58;;;;;;;12.33;11.60;;;25.80;99.90;;;;;;4933635;29;20576;-71
2022/06/25 06:14:27;;;;;;;11.67;10.90;;;26.10;99.90;;;;;;4933176;29;20454;-71
2022/06/25 06:16:56;;;;;;;12.63;12.00;;;26.60;99.90;;;;;;4933852;29;20495;-71
2022/06/25 06:19:23;;;;;;;11.60;10.97;;;27.10;99.90;;;;;;4933041;29;21016;-71
2022/06/25 06:21:50;;;;;;;10.53;9.97;;;27.70;99.90;;;;;;4933546;29;20503;-69
2022/06/25 06:24:16;;;;;;;11.50;10.80;;;28.00;99.90;;;;;;4933192;29;20948;-69
2022/06/25 06:26:43;;;;;;;11.07;10.37;;;28.20;99.90;;;;;;4933296;29;20476;-68
2022/06/25 06:29:10;;;;;;;9.33;8.90;;;28.40;99.90;;;;;;4932854;29;20475;-69
2022/06/25 06:31:38;;;;;;;9.73;9.33;;;28.40;99.90;;;;;;4933508;29;20484;-70
2022/06/25 06:34:04;;;;;;;7.87;7.50;;;28.40;99.90;;;;;;4928905;29;20477;-69
2022/06/25 06:36:31;;;;;;;7.97;7.57;;;28.40;99.90;;;;;;4931776;29;20580;-69
2022/06/25 06:38:58;;;;;;;7.77;7.47;;;28.60;99.90;;;;;;4933111;29;20580;-70
2022/06/25 06:41:24;;;;;;;7.30;7.00;;;29.00;99.90;;;;;;4933013;29;20507;-70
2022/06/25 06:43:51;;;;;;;6.40;6.20;;;29.10;99.90;;;;;;4932922;29;20730;-69
2022/06/25 06:46:19;;;;;;;6.30;6.00;;;29.10;99.90;;;;;;4933357;29;20484;-69
2022/06/25 06:48:47;;;;;;;6.10;5.90;;;29.10;99.90;;;;;;4932649;29;20472;-70
2022/06/25 06:51:14;;;;;;;5.57;5.47;;;29.20;99.90;;;;;;4933206;29;20485;-70
2022/06/25 06:53:40;;;;;;;6.37;6.00;;;29.60;99.90;;;;;;4932818;29;20572;-69
2022/06/25 06:56:07;;;;;;;6.40;6.20;;;29.90;99.90;;;;;;4933557;29;20471;-70
2022/06/25 06:58:34;;;;;;;5.70;5.50;;;30.30;99.90;;;;;;4932998;29;20481;-70
2022/06/25 07:01:01;;;;;;;5.30;5.10;;;30.50;99.90;;;;;;4932901;29;20500;-70
2022/06/25 07:03:28;;;;;;;4.97;4.87;;;30.50;99.90;;;;;;4933125;29;20465;-70
2022/06/25 07:05:56;;;;;;;5.00;4.90;;;30.30;99.90;;;;;;4933764;29;20854;-69
2022/06/25 07:08:23;;;;;;;5.33;5.03;;;29.60;99.90;;;;;;4933064;29;20980;-70
2022/06/25 07:10:49;;;;;;;4.70;4.60;;;29.40;99.90;;;;;;4933726;29;20604;-69
2022/06/25 07:13:16;;;;;;;4.70;4.40;;;29.70;99.90;;;;;;4932996;29;20480;-69
2022/06/25 07:15:43;;;;;;;4.90;4.70;;;30.10;99.90;;;;;;4933392;29;20476;-70
2022/06/25 07:18:09;;;;;;;4.77;4.67;;;30.20;99.90;;;;;;4933334;29;20479;-70
2022/06/25 07:20:36;;;;;;;4.70;4.60;;;30.50;99.90;;;;;;4932488;29;20958;-70
2022/06/25 07:23:04;;;;;;;3.60;3.60;;;31.20;99.90;;;;;;4931172;29;20470;-70
2022/06/25 07:25:31;;;;;;;4.93;4.63;;;31.40;99.90;;;;;;4931144;29;20756;-70
2022/06/25 07:27:58;;;;;;;4.60;4.50;;;31.20;99.90;;;;;;4933656;29;20474;-70
2022/06/25 07:30:25;;;;;;;4.10;4.10;;;31.10;99.90;;;;;;4932270;29;20474;-69
2022/06/25 07:32:52;;;;;;;4.30;4.20;;;31.30;99.90;;;;;;4932895;29;20466;-70
2022/06/25 07:35:19;;;;;;;3.60;3.60;;;31.80;99.90;;;;;;4932796;29;20606;-70
2022/06/25 07:37:45;;;;;;;4.30;4.20;;;32.30;99.90;;;;;;4932830;29;20465;-70
2022/06/25 07:40:14;;;;;;;3.60;3.47;;;32.70;99.10;;;;;;4932532;29;20488;-70
2022/06/25 07:42:41;;;;;;;3.33;3.33;;;32.70;98.60;;;;;;4933460;29;20477;-70
2022/06/25 07:45:08;;;;;;;3.87;3.77;;;32.90;97.80;;;;;;4932614;29;20476;-70
2022/06/25 07:47:39;;;;;;;4.10;4.10;;;32.70;97.10;;;;;;4933426;29;20462;-70
2022/06/25 07:52:52;;;;;;;3.53;3.53;;;33.00;96.70;;;;;;4932931;29;20948;-70
2022/06/25 07:55:20;;;;;;;3.60;3.60;;;33.20;96.30;;;;;;4930032;29;20472;-70
2022/06/25 07:57:47;;;;;;;3.30;3.10;;;33.00;95.60;;;;;;4936492;29;20457;-70
2022/06/25 08:00:14;;;;;;;3.37;3.27;;;32.90;94.70;;;;;;4935353;29;20834;-70
2022/06/25 08:02:41;;;;;;;4.67;4.57;;;33.00;93.80;;;;;;4936349;29;20972;-70
2022/06/25 08:05:08;;;;;;;3.80;3.80;;;33.30;93.60;;;;;;4935950;29;20461;-70
2022/06/25 08:07:35;;;;;;;4.23;4.23;;;33.40;93.80;;;;;;4936507;29;20560;-70
2022/06/25 08:10:02;;;;;;;5.03;4.93;;;32.90;94.20;;;;;;4936307;29;20462;-70
2022/06/25 08:12:30;;;;;;;5.03;4.93;;;32.60;94.70;;;;;;4936130;29;20485;-70
2022/06/25 08:14:56;;;;;;;4.77;4.50;;;32.10;95.30;;;;;;4935772;29;20472;-70
2022/06/25 08:17:23;;;;;;;4.80;4.50;;;32.10;95.50;;;;;;4935913;29;20469;-70
2022/06/25 08:19:50;;;;;;;5.30;5.00;;;32.10;95.80;;;;;;4935463;29;20462;-69
2022/06/25 08:22:17;;;;;;;5.03;4.93;;;32.00;95.60;;;;;;4936114;29;20519;-70
2022/06/25 08:24:43;;;;;;;4.70;4.60;;;32.00;96.00;;;;;;4935602;29;20469;-69
2022/06/25 08:27:11;;;;;;;4.70;4.70;;;31.90;96.00;;;;;;4936020;29;20470;-70
2022/06/25 08:29:39;;;;;;;4.87;4.77;;;32.20;95.60;;;;;;4935020;29;20465;-69
2022/06/25 08:32:06;;;;;;;5.70;5.50;;;32.30;95.20;;;;;;4936295;29;20482;-70
2022/06/25 08:34:33;;;;;;;6.00;5.70;;;32.40;94.60;;;;;;4935377;29;20993;-70
2022/06/25 08:36:59;;;;;;;4.87;4.80;;;32.20;94.50;;;;;;4935686;29;20488;-70
2022/06/25 08:39:26;;;;;;;6.07;5.93;;;32.20;94.70;;;;;;4935552;29;20488;-70
2022/06/25 08:41:53;;;;;;;4.80;4.70;;;31.50;94.80;;;;;;4935514;29;20501;-70
2022/06/25 08:44:20;;;;;;;6.90;6.70;;;31.10;95.30;;;;;;4935021;29;20557;-69
2022/06/25 08:46:49;;;;;;;7.43;6.83;;;30.80;96.00;;;;;;4935758;29;20475;-70
2022/06/25 08:49:18;;;;;;;7.17;6.87;;;30.10;97.20;;;;;;4934937;29;20557;-70
2022/06/25 08:51:46;;;;;;;7.33;6.80;;;29.60;97.60;;;;;;4935342;29;20483;-70
2022/06/25 08:54:14;;;;;;;7.13;6.73;;;29.10;98.80;;;;;;4935343;29;20471;-70
2022/06/25 08:56:42;;;;;;;7.30;6.90;;;28.70;99.80;;;;;;4935337;29;20467;-70
2022/06/25 08:59:09;;;;;;;7.53;7.20;;;28.40;99.90;;;;;;4934729;29;20476;-70
2022/06/25 09:01:35;;;;;;;6.00;5.80;;;28.20;99.90;;;;;;4934981;29;20540;-70
2022/06/25 09:04:04;;;;;;;7.73;7.23;;;28.20;99.90;;;;;;4935042;29;20977;-69
2022/06/25 09:06:30;;;;;;;7.13;6.77;;;28.40;99.90;;;;;;4934959;29;20470;-70
2022/06/25 09:09:09;;;;;;;5.70;5.60;;;28.80;99.90;;;;;;4934800;29;20472;-69
2022/06/25 09:11:52;;;;;;;6.10;5.93;;;28.90;99.90;;;;;;4935064;29;20568;-69
2022/06/25 09:14:22;;;;;;;7.97;7.37;;;28.60;99.90;;;;;;4934565;29;20468;-69
2022/06/25 09:16:54;;;;;;;6.70;6.37;;;28.30;99.90;;;;;;4935144;29;20466;-70
2022/06/25 09:19:30;;;;;;;7.17;6.87;;;28.10;99.90;;;;;;4934704;29;20469;-69
2022/06/25 09:21:58;;;;;;;7.60;7.20;;;27.80;99.90;;;;;;4934649;29;20551;-70
2022/06/25 09:24:24;;;;;;;7.33;6.83;;;27.60;99.90;;;;;;4932893;29;20478;-70
2022/06/25 09:26:52;;;;;;;7.03;6.73;;;27.60;99.90;;;;;;4934812;29;20472;-69
2022/06/25 09:29:18;;;;;;;7.33;6.93;;;27.80;99.90;;;;;;4934397;29;20786;-70
2022/06/25 09:31:45;;;;;;;7.10;6.80;;;28.10;99.90;;;;;;4934759;29;20488;-70
2022/06/25 09:34:12;;;;;;;8.07;7.77;;;28.50;99.90;;;;;;4934024;29;20482;-71
2022/06/25 09:36:40;;;;;;;6.80;6.50;;;28.90;99.90;;;;;;4934981;29;20985;-70
2022/06/25 09:39:07;;;;;;;7.10;6.90;;;29.10;99.90;;;;;;4934636;29;20488;-70
2022/06/25 09:41:50;;;;;;;6.50;6.30;;;29.40;99.90;;;;;;4934259;29;20491;-69
2022/06/25 09:44:18;;;;;;;7.30;7.00;;;29.50;99.90;;;;;;4934673;29;20528;-70
2022/06/25 09:46:54;;;;;;;6.50;6.27;;;29.70;99.90;;;;;;4934329;29;20500;-70
2022/06/25 09:49:24;;;;;;;6.87;6.67;;;29.80;99.90;;;;;;4933985;29;20478;-70
2022/06/25 09:52:00;;;;;;;6.70;6.40;;;29.70;99.90;;;;;;4934073;29;20484;-70
2022/06/25 09:54:27;;;;;;;6.50;6.40;;;29.60;99.90;;;;;;4934020;29;20495;-70
2022/06/25 09:56:54;;;;;;;6.67;6.40;;;29.70;99.90;;;;;;4931101;29;20547;-70
2022/06/25 09:59:24;;;;;;;6.10;5.90;;;29.70;99.90;;;;;;4933337;29;20500;-70
2022/06/25 10:01:51;;;;;;;6.63;6.20;;;29.90;99.40;;;;;;4934101;29;20496;-70
2022/06/25 10:04:20;;;;;;;6.37;6.07;;;29.90;99.40;;;;;;4933672;29;20468;-70
2022/06/25 10:06:50;;;;;;;6.37;5.97;;;30.20;98.50;;;;;;4934215;29;20875;-70
2022/06/25 10:09:20;;;;;;;5.70;5.60;;;30.30;98.10;;;;;;4933875;29;20468;-70
2022/06/25 10:11:47;;;;;;;6.10;5.90;;;30.40;97.40;;;;;;4933770;29;20487;-70
2022/06/25 10:14:14;;;;;;;6.00;5.80;;;30.60;97.10;;;;;;4933601;29;20471;-70
2022/06/25 10:16:42;;;;;;;5.70;5.50;;;30.70;97.20;;;;;;4972629;23;20504;-70
2022/06/25 10:19:10;;;;;;;7.10;6.80;;;30.80;97.30;;;;;;4952916;28;20487;-68
2022/06/25 10:21:37;;;;;;;6.20;6.07;;;30.70;96.90;;;;;;4953085;29;20491;-70
2022/06/25 10:24:06;;;;;;;6.33;6.13;;;30.60;97.40;;;;;;4952990;29;20502;-68
2022/06/25 10:26:35;;;;;;;6.23;6.13;;;30.40;96.90;;;;;;4953505;28;20493;-68
2022/06/25 10:29:04;;;;;;;7.13;6.53;;;30.20;97.80;;;;;;4953281;29;20476;-70
2022/06/25 10:31:31;;;;;;;6.23;6.03;;;29.80;97.80;;;;;;4953704;29;20837;-70
2022/06/25 10:33:59;;;;;;;5.93;5.80;;;29.60;97.80;;;;;;4952741;29;20467;-69
2022/06/25 10:36:44;;;;;;;6.10;5.90;;;29.70;98.30;;;;;;4953146;28;20516;-70
2022/06/25 10:39:39;;;;;;;6.30;6.00;;;29.90;97.90;;;;;;4953919;28;21119;-69
2022/06/25 10:45:52;;;;;;;5.47;5.37;;;29.10;98.70;;;;;;4953762;28;20494;-70
2022/06/25 10:48:22;;;;;;;5.50;5.30;;;28.90;98.40;;;;;;4953648;28;20959;-70
2022/06/25 10:50:52;;;;;;;5.03;4.93;;;29.00;99.20;;;;;;4953032;29;20494;-70
2022/06/25 10:53:22;;;;;;;5.10;5.00;;;29.10;99.30;;;;;;4953749;29;20467;-68
2022/06/25 10:56:14;;;;;;;5.10;5.00;;;29.10;98.80;;;;;;4953393;28;20498;-70
2022/06/25 10:58:47;;;;;;;5.83;5.53;;;29.20;99.20;;;;;;4953211;29;20466;-70
2022/06/25 11:01:32;;;;;;;5.13;5.00;;;29.50;98.70;;;;;;4955225;29;20479;-69
2022/06/25 11:04:01;;;;;;;5.13;5.03;;;29.60;98.40;;;;;;4953596;29;20453;-69
2022/06/25 11:06:30;;;;;;;5.40;5.30;;;29.60;98.60;;;;;;4955841;28;20825;-70
2022/06/25 11:09:04;;;;;;;5.77;5.57;;;29.60;98.80;;;;;;4966668;29;20666;-68
2022/06/25 11:11:33;;;;;;;4.70;4.60;;;29.60;98.00;;;;;;4971602;28;20490;-68
2022/06/25 11:14:04;;;;;;;5.43;5.23;;;29.70;97.60;;;;;;4970006;28;20530;-68
2022/06/25 11:16:30;;;;;;;4.13;4.00;;;29.70;97.60;;;;;;4971475;28;20496;-69
2022/06/25 11:18:58;;;;;;;3.90;3.80;;;29.60;96.10;;;;;;4971079;29;20455;-68
2022/06/25 11:21:30;;;;;;;3.40;3.30;;;29.30;95.30;;;;;;4973075;29;20484;-69
2022/06/25 11:24:07;;;;;;;3.60;3.60;;;29.30;95.70;;;;;;4955645;29;20913;-69
2022/06/25 11:29:22;;;;;;;4.50;4.40;;;29.50;96.10;;;;;;4952202;29;20468;-68
2022/06/25 11:31:50;;;;;;;3.77;3.70;;;29.60;95.90;;;;;;4955140;29;20467;-69
2022/06/25 11:34:18;;;;;;;4.20;4.13;;;29.60;95.80;;;;;;4955751;28;20905;-69
2022/06/25 11:36:45;;;;;;;3.77;3.70;;;29.70;96.30;;;;;;4956075;29;20488;-69
2022/06/25 11:39:16;;;;;;;4.60;4.40;;;29.80;96.50;;;;;;4955673;29;20465;-69
2022/06/25 11:41:48;;;;;;;3.90;3.90;;;29.80;96.20;;;;;;4955877;28;20520;-69
2022/06/25 11:44:15;;;;;;;4.27;4.20;;;29.60;96.00;;;;;;4955731;29;20479;-69
2022/06/25 11:46:44;;;;;;;4.00;4.00;;;29.60;96.10;;;;;;4955603;29;20494;-69
2022/06/25 11:49:12;;;;;;;3.87;3.87;;;29.50;96.30;;;;;;4955183;29;20492;-67
2022/06/25 11:51:44;;;;;;;4.07;4.07;;;29.30;96.40;;;;;;4955792;29;20509;-67
2022/06/25 11:54:11;;;;;;;3.87;3.87;;;29.40;96.30;;;;;;4955566;29;20471;-68
2022/06/25 11:56:38;;;;;;;4.07;3.97;;;29.40;95.80;;;;;;4952468;29;22182;-69
2022/06/25 11:59:04;;;;;;;3.23;3.23;;;29.20;95.40;;;;;;4954689;29;20949;-69
2022/06/25 12:01:31;;;;;;;3.40;3.40;;;29.50;95.00;;;;;;4955388;29;20468;-69
2022/06/25 12:03:59;;;;;;;3.20;3.20;;;29.70;95.20;;;;;;4954842;29;20473;-69
2022/06/25 12:06:26;;;;;;;3.27;3.17;;;29.80;95.30;;;;;;4955148;28;20490;-70
2022/06/25 12:08:53;;;;;;;3.30;3.20;;;29.90;94.90;;;;;;4955447;29;20479;-69
2022/06/25 12:11:20;;;;;;;2.87;2.87;;;30.10;95.10;;;;;;4955182;29;20469;-69
2022/06/25 12:13:47;;;;;;;3.20;3.20;;;30.40;94.60;;;;;;4954660;29;20475;-70
2022/06/25 12:16:14;;;;;;;3.10;3.10;;;30.60;94.40;;;;;;4954964;28;20499;-69
2022/06/25 12:18:43;;;;;;;3.10;3.10;;;30.80;93.20;;;;;;4955040;29;20943;-70
2022/06/25 12:21:20;;;;;;;2.97;2.87;;;30.70;93.00;;;;;;4955384;29;20963;-70
2022/06/25 12:23:50;;;;;;;3.00;3.00;;;30.80;93.00;;;;;;4954814;29;20621;-70
2022/06/25 12:26:25;;;;;;;2.80;2.60;;;30.90;92.30;;;;;;4954941;28;20961;-69
2022/06/25 12:28:51;;;;;;;2.13;2.13;;;31.20;91.00;;;;;;4954559;29;20554;-69
2022/06/25 12:31:18;;;;;;;2.17;2.17;;;31.30;90.60;;;;;;4954919;29;20472;-68
2022/06/25 12:33:49;;;;;;;2.50;2.50;;;31.30;90.20;;;;;;4954042;29;20573;-69
2022/06/25 12:36:19;;;;;;;2.40;2.40;;;31.10;89.30;;;;;;4954708;28;20489;-68
2022/06/25 12:38:46;;;;;;;2.70;2.70;;;31.10;90.10;;;;;;4954838;29;20475;-67
2022/06/25 12:41:13;;;;;;;2.90;2.90;;;31.00;90.00;;;;;;4954621;28;20815;-69
2022/06/25 12:43:47;;;;;;;2.73;2.73;;;30.70;89.80;;;;;;4954175;29;21017;-66
2022/06/25 12:46:15;;;;;;;3.00;2.90;;;30.50;90.10;;;;;;4948636;29;20488;-68
2022/06/25 12:48:42;;;;;;;2.50;2.47;;;30.40;89.70;;;;;;4954093;29;20655;-68
2022/06/25 12:51:10;;;;;;;2.33;2.33;;;30.00;90.40;;;;;;4954848;29;20474;-68
2022/06/25 12:53:39;;;;;;;2.67;2.57;;;29.80;91.20;;;;;;4954398;29;20466;-68
2022/06/25 12:56:07;;;;;;;2.60;2.60;;;29.90;91.50;;;;;;4954601;29;20486;-67
2022/06/25 12:58:36;;;;;;;2.60;2.60;;;29.90;91.70;;;;;;4954019;29;20536;-69
2022/06/25 13:01:18;;;;;;;2.83;2.83;;;29.90;92.10;;;;;;4954578;28;20466;-68
2022/06/25 13:03:44;;;;;;;2.90;2.90;;;29.70;91.80;;;;;;4953921;29;20501;-69
2022/06/25 13:06:11;;;;;;;2.37;2.37;;;29.90;92.10;;;;;;4954745;28;20911;-70
2022/06/25 13:08:40;;;;;;;2.70;2.60;;;30.00;91.80;;;;;;4954414;29;20960;-69
2022/06/25 13:11:07;;;;;;;2.17;2.13;;;30.00;91.70;;;;;;4954092;29;20477;-69
2022/06/25 13:13:35;;;;;;;2.90;2.80;;;30.10;91.50;;;;;;4954130;29;20463;-70
2022/06/25 13:16:04;;;;;;;2.70;2.60;;;30.00;91.40;;;;;;4954333;29;20506;-68
2022/06/25 13:18:31;;;;;;;2.60;2.50;;;29.90;91.30;;;;;;4953639;28;20475;-68
2022/06/25 13:20:57;;;;;;;2.97;2.93;;;29.90;92.00;;;;;;4953955;29;20474;-69
2022/06/25 13:23:24;;;;;;;4.90;2.63;;;29.90;91.70;;;;;;4951769;29;20489;-69
2022/06/25 13:25:52;;;;;;;2.40;2.40;;;30.00;91.70;;;;;;4954008;28;20807;-67
2022/06/25 13:28:19;;;;;;;2.87;2.77;;;30.20;91.90;;;;;;4953751;29;20488;-67
2022/06/25 13:30:45;;;;;;;2.87;2.77;;;30.20;91.40;;;;;;4953533;29;20476;-68
2022/06/25 13:33:12;;;;;;;2.40;2.40;;;30.20;91.50;;;;;;4953809;29;20470;-68
2022/06/25 13:35:39;;;;;;;2.63;2.63;;;30.30;91.60;;;;;;4953237;29;20487;-66
2022/06/25 13:38:06;;;;;;;2.80;2.70;;;30.30;91.30;;;;;;4953476;29;20589;-68
2022/06/25 13:40:33;;;;;;;2.70;2.70;;;30.40;91.20;;;;;;4953445;29;20585;-69
2022/06/25 13:43:01;;;;;;;3.30;3.20;;;30.60;91.20;;;;;;4953531;29;20980;-69
2022/06/25 13:45:27;;;;;;;3.13;3.03;;;30.60;91.30;;;;;;4952940;29;20491;-67
2022/06/25 13:47:54;;;;;;;2.80;2.70;;;30.60;91.20;;;;;;4953440;29;20472;-68
2022/06/25 13:50:21;;;;;;;3.20;3.20;;;30.60;91.20;;;;;;4953267;29;20500;-69
2022/06/25 13:52:47;;;;;;;2.80;2.80;;;30.50;90.70;;;;;;4953213;28;20513;-68
2022/06/25 13:55:14;;;;;;;2.67;2.67;;;30.50;91.00;;;;;;4950072;29;20537;-70
2022/06/25 13:57:43;;;;;;;3.07;2.97;;;30.60;91.10;;;;;;4952985;29;20519;-68
2022/06/25 14:00:12;;;;;;;2.53;2.53;;;30.80;90.50;;;;;;4952365;29;20573;-69
2022/06/25 14:02:39;;;;;;;2.87;2.83;;;30.60;90.10;;;;;;4953084;29;20497;-68
2022/06/25 14:05:06;;;;;;;2.70;2.70;;;30.50;90.40;;;;;;4952481;29;20490;-68
2022/06/25 14:07:33;;;;;;;2.43;2.43;;;30.40;90.40;;;;;;4953257;29;20493;-69
2022/06/25 14:09:59;;;;;;;2.97;2.90;;;30.40;90.30;;;;;;4952750;29;20472;-68
2022/06/25 14:12:26;;;;;;;2.87;2.87;;;30.50;91.10;;;;;;4952993;29;20941;-69
2022/06/25 14:14:54;;;;;;;2.77;2.77;;;30.30;91.10;;;;;;4952361;29;20477;-69
2022/06/25 14:17:23;;;;;;;2.57;2.57;;;30.00;91.00;;;;;;4952960;29;20552;-68
2022/06/25 14:19:50;;;;;;;3.23;3.23;;;30.00;91.90;;;;;;4952860;29;21001;-69
2022/06/25 14:22:17;;;;;;;3.50;3.40;;;29.90;91.90;;;;;;4952958;29;20468;-68
2022/06/25 14:27:27;;;;;;;3.30;3.30;;;29.60;91.80;;;;;;4953062;29;20447;-68
2022/06/25 14:29:54;;;;;;;3.40;3.30;;;29.70;91.90;;;;;;4951888;29;20606;-69
2022/06/25 14:32:22;;;;;;;3.00;2.90;;;29.80;91.60;;;;;;4952522;29;20459;-68
2022/06/25 14:34:49;;;;;;;3.03;3.03;;;29.70;91.20;;;;;;4952357;29;20463;-67
2022/06/25 14:42:44;;;;;;;2.73;2.73;;;29.70;92.50;;;;;;4952359;29;20494;-68
2022/06/25 14:45:11;;;;;;;2.80;2.80;;;29.80;92.50;;;;;;4950679;28;20496;-67
2022/06/25 14:47:39;;;;;;;5.30;3.10;;;29.80;92.60;;;;;;4952094;29;20471;-68
2022/06/25 14:50:07;;;;;;;3.20;3.07;;;29.70;93.00;;;;;;4952060;29;20472;-68
2022/06/25 14:52:34;;;;;;;3.03;2.93;;;29.60;92.40;;;;;;4952448;29;20471;-69
2022/06/25 14:55:01;;;;;;;2.90;2.90;;;29.60;92.50;;;;;;4951857;28;20465;-69
2022/06/25 14:57:28;;;;;;;3.13;2.90;;;29.50;92.50;;;;;;4952653;29;20478;-69
2022/06/25 14:59:55;;;;;;;2.97;2.97;;;29.50;92.20;;;;;;4952080;29;20471;-67
2022/06/25 15:02:22;;;;;;;3.40;3.30;;;29.40;92.50;;;;;;4952396;29;20468;-70
2022/06/25 15:04:50;;;;;;;2.97;2.97;;;29.40;93.00;;;;;;4953050;28;20472;-68
2022/06/25 15:07:18;;;;;;;2.90;2.90;;;29.30;92.80;;;;;;4956956;29;20913;-68
2022/06/25 15:09:44;;;;;;;2.50;2.50;;;29.20;92.90;;;;;;4957136;29;20479;-68
2022/06/25 15:12:11;;;;;;;2.67;2.67;;;29.30;92.90;;;;;;4956968;29;21097;-68
2022/06/25 15:14:38;;;;;;;2.40;2.40;;;29.30;92.70;;;;;;4956367;29;20463;-68
2022/06/25 15:17:04;;;;;;;3.40;3.20;;;29.40;92.40;;;;;;4956414;28;20841;-69
2022/06/25 15:19:31;;;;;;;2.93;2.93;;;29.50;92.60;;;;;;4955799;29;20474;-67
2022/06/25 15:21:59;;;;;;;2.83;2.63;;;29.40;92.80;;;;;;4956141;29;20478;-68
2022/06/25 15:24:26;;;;;;;2.80;2.70;;;29.50;92.70;;;;;;4953975;29;20598;-68
2022/06/25 15:26:53;;;;;;;3.00;2.90;;;29.50;93.00;;;;;;4955629;28;20490;-68
2022/06/25 15:29:19;;;;;;;2.30;2.30;;;29.50;92.20;;;;;;4955396;29;21144;-68
2022/06/25 15:31:46;;;;;;;2.20;2.20;;;29.50;92.00;;;;;;4955822;29;20575;-69
2022/06/25 15:34:13;;;;;;;2.47;2.47;;;29.90;92.00;;;;;;4955169;29;20463;-67
2022/06/25 15:36:39;;;;;;;2.20;2.20;;;30.10;91.40;;;;;;4955600;28;20487;-68
2022/06/25 15:39:07;;;;;;;2.20;2.20;;;30.30;91.20;;;;;;4955964;29;20539;-67
2022/06/25 15:41:34;;;;;;;2.47;2.40;;;30.50;91.10;;;;;;4955836;29;20475;-68
2022/06/25 15:44:01;;;;;;;2.23;2.23;;;30.60;91.10;;;;;;4955295;29;20502;-68
2022/06/25 15:46:28;;;;;;;1.90;1.90;;;30.60;90.60;;;;;;4955790;28;21020;-69
2022/06/25 15:48:55;;;;;;;2.23;2.13;;;30.30;90.50;;;;;;4955142;29;20548;-68
2022/06/25 15:51:22;;;;;;;2.30;2.30;;;30.30;90.70;;;;;;4955370;28;20465;-69
2022/06/25 15:53:48;;;;;;;3.23;3.13;;;30.30;90.70;;;;;;4955311;29;20467;-68
2022/06/25 15:56:16;;;;;;;3.40;3.30;;;30.30;90.80;;;;;;4952634;28;20872;-68
2022/06/25 16:01:27;;;;;;;3.13;3.13;;;30.50;91.10;;;;;;4955498;29;21046;-69
2022/06/25 16:03:54;;;;;;;2.83;2.83;;;30.60;91.20;;;;;;4954688;29;20498;-69
2022/06/25 16:06:21;;;;;;;2.97;2.83;;;30.50;90.10;;;;;;4955604;29;20497;-69
2022/06/25 16:08:48;;;;;;;2.50;2.50;;;30.40;90.50;;;;;;4955244;29;20465;-68
2022/06/25 16:11:34;;;;;;;3.37;3.30;;;29.90;90.70;;;;;;4955246;29;20814;-68
2022/06/25 16:14:02;;;;;;;3.90;3.80;;;29.50;91.60;;;;;;4954739;29;20467;-69
2022/06/25 16:16:29;;;;;;;2.60;2.60;;;29.40;91.60;;;;;;4954655;28;20999;-68
2022/06/25 16:18:56;;;;;;;2.23;2.23;;;29.40;92.20;;;;;;4954835;29;20974;-69
2022/06/25 16:21:23;;;;;;;2.20;2.20;;;29.50;92.00;;;;;;4955326;29;20526;-67
2022/06/25 16:23:50;;;;;;;2.40;2.40;;;29.50;91.50;;;;;;4954830;29;20507;-68
2022/06/25 16:26:18;;;;;;;2.67;2.47;;;29.30;91.70;;;;;;4955390;29;20573;-69
2022/06/25 16:28:45;;;;;;;2.70;2.50;;;29.30;91.50;;;;;;4955512;29;20791;-69
2022/06/25 16:31:12;;;;;;;2.57;2.57;;;29.30;92.00;;;;;;4955180;28;20467;-68
2022/06/25 16:33:39;;;;;;;2.43;2.43;;;29.20;92.50;;;;;;4954831;29;20467;-69
2022/06/25 16:36:06;;;;;;;2.90;2.90;;;29.20;92.60;;;;;;4955415;29;20498;-68
2022/06/25 16:38:33;;;;;;;3.30;3.10;;;29.10;92.60;;;;;;4955263;29;20502;-69
2022/06/25 16:41:01;;;;;;;3.10;2.80;;;29.00;92.70;;;;;;4954881;29;20476;-68
2022/06/25 16:46:10;;;;;;;2.97;2.97;;;28.90;92.70;;;;;;4953685;28;20987;-68
2022/06/25 16:48:37;;;;;;;3.20;3.00;;;28.70;92.70;;;;;;4954100;29;20458;-69
2022/06/25 16:51:06;;;;;;;2.73;2.63;;;28.40;92.70;;;;;;4954653;29;20520;-67
2022/06/25 16:53:33;;;;;;;2.80;2.80;;;28.30;92.80;;;;;;4954064;29;20896;-68
2022/06/25 16:55:59;;;;;;;2.80;2.70;;;28.20;93.10;;;;;;4954490;28;20559;-68
2022/06/25 16:58:26;;;;;;;2.33;2.33;;;28.20;93.20;;;;;;4953729;29;20461;-67
2022/06/25 17:00:54;;;;;;;2.80;2.70;;;28.20;92.90;;;;;;4954669;29;20499;-67
2022/06/25 17:03:21;;;;;;;3.17;3.00;;;28.20;93.40;;;;;;4954384;29;20485;-69
2022/06/25 17:05:48;;;;;;;2.80;2.80;;;28.20;93.40;;;;;;4954199;28;20829;-68
2022/06/25 17:08:14;;;;;;;2.73;2.63;;;28.10;93.40;;;;;;4954172;29;20465;-68
2022/06/25 17:10:41;;;;;;;6.13;2.80;;;28.10;93.50;;;;;;4954158;29;20468;-68
2022/06/25 17:13:08;;;;;;;3.20;3.10;;;28.00;93.90;;;;;;4954511;29;20480;-69
2022/06/25 17:15:35;;;;;;;2.50;2.50;;;27.90;93.90;;;;;;4953698;28;20492;-68